sensor_id;sensor_type;location;lat;lon;timestamp;pressure;altitude;pressure_sealevel;temperature;humidity
80568;BME280;69922;45.656;25.586;2023-11-19T00:01:07;95241.15;;;0.58;85.36
80568;BME280;69922;45.656;25.586;2023-11-19T00:02:33;95242.38;;;0.57;85.60
80568;BME280;69922;45.656;25.586;2023-11-19T00:03:40;95236.67;;;0.57;85.55
80568;BME280;69922;45.656;25.586;2023-11-19T00:04:46;95240.81;;;0.56;85.76
80568;BME280;69922;45.656;25.586;2023-11-19T00:05:52;95242.16;;;0.56;85.53
80568;BME280;69922;45.656;25.586;2023-11-19T00:06:58;95242.09;;;0.56;85.60
80568;BME280;69922;45.656;25.586;2023-11-19T00:08:09;95244.23;;;0.56;85.70
80568;BME280;69922;45.656;25.586;2023-11-19T00:09:15;95243.52;;;0.56;85.53
80568;BME280;69922;45.656;25.586;2023-11-19T00:10:23;95248.00;;;0.56;85.77
80568;BME280;69922;45.656;25.586;2023-11-19T00:11:29;95243.55;;;0.57;85.74
80568;BME280;69922;45.656;25.586;2023-11-19T00:12:35;95248.39;;;0.57;85.73
80568;BME280;69922;45.656;25.586;2023-11-19T00:13:41;95249.91;;;0.57;85.49
80568;BME280;69922;45.656;25.586;2023-11-19T00:14:48;95245.65;;;0.56;85.44
80568;BME280;69922;45.656;25.586;2023-11-19T00:15:54;95249.04;;;0.56;85.47
80568;BME280;69922;45.656;25.586;2023-11-19T00:17:01;95253.39;;;0.56;85.63
80568;BME280;69922;45.656;25.586;2023-11-19T00:18:07;95248.77;;;0.57;85.42
80568;BME280;69922;45.656;25.586;2023-11-19T00:19:13;95249.11;;;0.57;85.33
80568;BME280;69922;45.656;25.586;2023-11-19T00:20:20;95251.40;;;0.57;85.46
80568;BME280;69922;45.656;25.586;2023-11-19T00:21:27;95247.00;;;0.57;85.24
80568;BME280;69922;45.656;25.586;2023-11-19T00:22:35;95253.72;;;0.56;85.56
80568;BME280;69922;45.656;25.586;2023-11-19T00:23:41;95256.98;;;0.56;85.52
80568;BME280;69922;45.656;25.586;2023-11-19T00:24:47;95257.78;;;0.56;85.51
80568;BME280;69922;45.656;25.586;2023-11-19T00:25:54;95256.34;;;0.55;85.71
80568;BME280;69922;45.656;25.586;2023-11-19T00:27:00;95253.86;;;0.54;85.63
80568;BME280;69922;45.656;25.586;2023-11-19T00:28:06;95254.02;;;0.55;85.71
80568;BME280;69922;45.656;25.586;2023-11-19T00:29:13;95254.98;;;0.54;85.81
80568;BME280;69922;45.656;25.586;2023-11-19T00:30:19;95253.91;;;0.55;85.84
80568;BME280;69922;45.656;25.586;2023-11-19T00:31:26;95253.00;;;0.55;86.00
80568;BME280;69922;45.656;25.586;2023-11-19T00:32:34;95261.02;;;0.56;85.78
80568;BME280;69922;45.656;25.586;2023-11-19T00:33:40;95252.19;;;0.56;85.81
80568;BME280;69922;45.656;25.586;2023-11-19T00:34:49;95256.55;;;0.56;85.74
80568;BME280;69922;45.656;25.586;2023-11-19T00:35:55;95252.31;;;0.56;85.75
80568;BME280;69922;45.656;25.586;2023-11-19T00:37:01;95259.52;;;0.58;85.76
80568;BME280;69922;45.656;25.586;2023-11-19T00:38:09;95263.65;;;0.57;85.57
80568;BME280;69922;45.656;25.586;2023-11-19T00:39:16;95258.01;;;0.57;85.92
80568;BME280;69922;45.656;25.586;2023-11-19T00:40:22;95256.88;;;0.57;85.70
80568;BME280;69922;45.656;25.586;2023-11-19T00:41:29;95261.67;;;0.57;85.77
80568;BME280;69922;45.656;25.586;2023-11-19T00:42:35;95254.66;;;0.56;85.67
80568;BME280;69922;45.656;25.586;2023-11-19T00:43:42;95254.58;;;0.57;85.80
80568;BME280;69922;45.656;25.586;2023-11-19T00:44:48;95258.71;;;0.57;86.05
80568;BME280;69922;45.656;25.586;2023-11-19T00:45:56;95254.04;;;0.58;86.00
80568;BME280;69922;45.656;25.586;2023-11-19T00:47:03;95257.16;;;0.59;85.87
80568;BME280;69922;45.656;25.586;2023-11-19T00:48:09;95254.38;;;0.60;85.93
80568;BME280;69922;45.656;25.586;2023-11-19T00:49:16;95253.84;;;0.60;85.66
80568;BME280;69922;45.656;25.586;2023-11-19T00:50:22;95255.34;;;0.59;85.60
80568;BME280;69922;45.656;25.586;2023-11-19T00:51:28;95258.64;;;0.60;85.59
80568;BME280;69922;45.656;25.586;2023-11-19T00:52:37;95267.30;;;0.61;85.46
80568;BME280;69922;45.656;25.586;2023-11-19T00:53:44;95258.75;;;0.61;85.43
80568;BME280;69922;45.656;25.586;2023-11-19T00:54:50;95259.39;;;0.62;85.28
80568;BME280;69922;45.656;25.586;2023-11-19T00:55:56;95257.79;;;0.62;85.75
80568;BME280;69922;45.656;25.586;2023-11-19T00:57:04;95256.81;;;0.61;85.80
80568;BME280;69922;45.656;25.586;2023-11-19T00:58:10;95255.58;;;0.61;85.66
80568;BME280;69922;45.656;25.586;2023-11-19T00:59:16;95261.05;;;0.61;85.57
80568;BME280;69922;45.656;25.586;2023-11-19T01:00:22;95259.71;;;0.61;85.71
80568;BME280;69922;45.656;25.586;2023-11-19T01:01:30;95259.98;;;0.62;85.43
80568;BME280;69922;45.656;25.586;2023-11-19T01:02:37;95259.55;;;0.62;85.59
80568;BME280;69922;45.656;25.586;2023-11-19T01:03:43;95258.70;;;0.63;85.43
80568;BME280;69922;45.656;25.586;2023-11-19T01:04:50;95263.80;;;0.63;85.59
80568;BME280;69922;45.656;25.586;2023-11-19T01:05:56;95261.98;;;0.64;85.29
80568;BME280;69922;45.656;25.586;2023-11-19T01:07:05;95262.41;;;0.64;85.56
80568;BME280;69922;45.656;25.586;2023-11-19T01:08:12;95262.16;;;0.65;85.64
80568;BME280;69922;45.656;25.586;2023-11-19T01:09:18;95266.45;;;0.65;85.50
80568;BME280;69922;45.656;25.586;2023-11-19T01:10:24;95263.39;;;0.67;85.21
80568;BME280;69922;45.656;25.586;2023-11-19T01:11:32;95262.80;;;0.66;85.37
80568;BME280;69922;45.656;25.586;2023-11-19T01:12:38;95262.86;;;0.66;85.38
80568;BME280;69922;45.656;25.586;2023-11-19T01:13:46;95265.33;;;0.65;85.52
80568;BME280;69922;45.656;25.586;2023-11-19T01:14:52;95261.88;;;0.64;85.63
80568;BME280;69922;45.656;25.586;2023-11-19T01:15:58;95261.66;;;0.64;85.58
80568;BME280;69922;45.656;25.586;2023-11-19T01:17:05;95262.73;;;0.64;85.58
80568;BME280;69922;45.656;25.586;2023-11-19T01:18:12;95264.84;;;0.65;85.62
80568;BME280;69922;45.656;25.586;2023-11-19T01:19:18;95267.70;;;0.65;85.65
80568;BME280;69922;45.656;25.586;2023-11-19T01:20:25;95264.56;;;0.65;85.72
80568;BME280;69922;45.656;25.586;2023-11-19T01:21:32;95265.48;;;0.66;85.82
80568;BME280;69922;45.656;25.586;2023-11-19T01:22:38;95267.64;;;0.66;85.71
80568;BME280;69922;45.656;25.586;2023-11-19T01:23:44;95266.51;;;0.66;85.35
80568;BME280;69922;45.656;25.586;2023-11-19T01:24:51;95261.35;;;0.67;85.48
80568;BME280;69922;45.656;25.586;2023-11-19T01:25:58;95260.39;;;0.67;85.44
80568;BME280;69922;45.656;25.586;2023-11-19T01:27:05;95262.70;;;0.68;85.48
80568;BME280;69922;45.656;25.586;2023-11-19T01:28:11;95258.24;;;0.67;85.62
80568;BME280;69922;45.656;25.586;2023-11-19T01:29:17;95261.08;;;0.66;85.66
80568;BME280;69922;45.656;25.586;2023-11-19T01:30:26;95260.64;;;0.66;85.60
80568;BME280;69922;45.656;25.586;2023-11-19T01:31:32;95260.05;;;0.65;85.60
80568;BME280;69922;45.656;25.586;2023-11-19T01:32:40;95258.13;;;0.65;85.64
80568;BME280;69922;45.656;25.586;2023-11-19T01:33:47;95260.91;;;0.65;85.64
80568;BME280;69922;45.656;25.586;2023-11-19T01:34:53;95259.05;;;0.65;85.67
80568;BME280;69922;45.656;25.586;2023-11-19T01:35:59;95262.31;;;0.65;85.67
80568;BME280;69922;45.656;25.586;2023-11-19T01:37:06;95260.00;;;0.65;85.66
80568;BME280;69922;45.656;25.586;2023-11-19T01:38:12;95261.89;;;0.65;85.53
80568;BME280;69922;45.656;25.586;2023-11-19T01:39:18;95260.60;;;0.65;85.67
80568;BME280;69922;45.656;25.586;2023-11-19T01:40:26;95264.58;;;0.66;85.79
80568;BME280;69922;45.656;25.586;2023-11-19T01:41:35;95265.38;;;0.66;85.63
80568;BME280;69922;45.656;25.586;2023-11-19T01:42:42;95264.09;;;0.67;85.58
80568;BME280;69922;45.656;25.586;2023-11-19T01:43:48;95260.45;;;0.67;85.30
80568;BME280;69922;45.656;25.586;2023-11-19T01:44:59;95257.48;;;0.68;85.49
80568;BME280;69922;45.656;25.586;2023-11-19T01:46:07;95258.67;;;0.68;85.40
80568;BME280;69922;45.656;25.586;2023-11-19T01:47:17;95264.05;;;0.68;85.57
80568;BME280;69922;45.656;25.586;2023-11-19T01:48:24;95258.73;;;0.68;85.52
80568;BME280;69922;45.656;25.586;2023-11-19T01:49:32;95262.38;;;0.67;85.27
80568;BME280;69922;45.656;25.586;2023-11-19T01:50:38;95257.59;;;0.67;85.28
80568;BME280;69922;45.656;25.586;2023-11-19T01:51:46;95261.41;;;0.67;85.48
80568;BME280;69922;45.656;25.586;2023-11-19T01:52:53;95258.67;;;0.67;85.27
80568;BME280;69922;45.656;25.586;2023-11-19T01:54:01;95258.79;;;0.67;85.35
80568;BME280;69922;45.656;25.586;2023-11-19T01:55:09;95260.66;;;0.68;85.22
80568;BME280;69922;45.656;25.586;2023-11-19T01:56:16;95259.42;;;0.69;85.27
80568;BME280;69922;45.656;25.586;2023-11-19T01:57:24;95261.11;;;0.70;85.35
80568;BME280;69922;45.656;25.586;2023-11-19T01:58:30;95262.55;;;0.70;85.10
80568;BME280;69922;45.656;25.586;2023-11-19T01:59:37;95265.73;;;0.70;85.18
80568;BME280;69922;45.656;25.586;2023-11-19T02:00:45;95265.90;;;0.71;85.10
80568;BME280;69922;45.656;25.586;2023-11-19T02:01:52;95267.73;;;0.71;84.98
80568;BME280;69922;45.656;25.586;2023-11-19T02:03:07;95268.59;;;0.71;84.99
80568;BME280;69922;45.656;25.586;2023-11-19T02:04:14;95268.42;;;0.71;85.17
80568;BME280;69922;45.656;25.586;2023-11-19T02:05:20;95271.50;;;0.72;85.06
80568;BME280;69922;45.656;25.586;2023-11-19T02:06:27;95268.65;;;0.72;84.80
80568;BME280;69922;45.656;25.586;2023-11-19T02:07:34;95267.58;;;0.74;84.96
80568;BME280;69922;45.656;25.586;2023-11-19T02:08:40;95269.78;;;0.73;84.69
80568;BME280;69922;45.656;25.586;2023-11-19T02:09:47;95268.66;;;0.73;84.62
80568;BME280;69922;45.656;25.586;2023-11-19T02:10:53;95268.86;;;0.72;84.82
80568;BME280;69922;45.656;25.586;2023-11-19T02:12:03;95269.72;;;0.73;84.51
80568;BME280;69922;45.656;25.586;2023-11-19T02:13:10;95270.85;;;0.71;84.57
80568;BME280;69922;45.656;25.586;2023-11-19T02:14:17;95272.46;;;0.71;84.25
80568;BME280;69922;45.656;25.586;2023-11-19T02:15:24;95269.56;;;0.71;84.39
80568;BME280;69922;45.656;25.586;2023-11-19T02:16:30;95271.92;;;0.72;84.46
80568;BME280;69922;45.656;25.586;2023-11-19T02:17:37;95269.35;;;0.73;84.34
80568;BME280;69922;45.656;25.586;2023-11-19T02:18:44;95271.23;;;0.73;84.31
80568;BME280;69922;45.656;25.586;2023-11-19T02:19:50;95269.98;;;0.73;84.37
80568;BME280;69922;45.656;25.586;2023-11-19T02:20:57;95271.02;;;0.73;84.18
80568;BME280;69922;45.656;25.586;2023-11-19T02:22:04;95268.55;;;0.74;84.16
80568;BME280;69922;45.656;25.586;2023-11-19T02:23:12;95267.65;;;0.75;84.46
80568;BME280;69922;45.656;25.586;2023-11-19T02:24:21;95273.61;;;0.75;84.21
80568;BME280;69922;45.656;25.586;2023-11-19T02:25:32;95270.05;;;0.75;84.16
80568;BME280;69922;45.656;25.586;2023-11-19T02:26:42;95268.39;;;0.74;84.29
80568;BME280;69922;45.656;25.586;2023-11-19T02:27:56;95273.48;;;0.72;84.07
80568;BME280;69922;45.656;25.586;2023-11-19T02:29:04;95268.96;;;0.70;84.06
80568;BME280;69922;45.656;25.586;2023-11-19T02:30:15;95273.85;;;0.70;84.01
80568;BME280;69922;45.656;25.586;2023-11-19T02:31:21;95269.10;;;0.69;84.03
80568;BME280;69922;45.656;25.586;2023-11-19T02:32:30;95270.18;;;0.69;84.14
80568;BME280;69922;45.656;25.586;2023-11-19T02:33:36;95269.10;;;0.68;83.99
80568;BME280;69922;45.656;25.586;2023-11-19T02:34:43;95267.59;;;0.67;84.01
80568;BME280;69922;45.656;25.586;2023-11-19T02:35:49;95264.09;;;0.67;83.62
80568;BME280;69922;45.656;25.586;2023-11-19T02:36:56;95262.75;;;0.66;83.79
80568;BME280;69922;45.656;25.586;2023-11-19T02:38:02;95260.80;;;0.65;83.60
80568;BME280;69922;45.656;25.586;2023-11-19T02:39:13;95259.95;;;0.65;83.99
80568;BME280;69922;45.656;25.586;2023-11-19T02:40:19;95259.40;;;0.64;83.70
80568;BME280;69922;45.656;25.586;2023-11-19T02:41:26;95259.50;;;0.62;83.85
80568;BME280;69922;45.656;25.586;2023-11-19T02:42:32;95260.78;;;0.60;83.65
80568;BME280;69922;45.656;25.586;2023-11-19T02:43:38;95259.48;;;0.58;83.61
80568;BME280;69922;45.656;25.586;2023-11-19T02:44:46;95253.38;;;0.56;83.73
80568;BME280;69922;45.656;25.586;2023-11-19T02:45:54;95257.09;;;0.54;83.57
80568;BME280;69922;45.656;25.586;2023-11-19T02:47:01;95260.52;;;0.53;83.73
80568;BME280;69922;45.656;25.586;2023-11-19T02:48:09;95263.35;;;0.51;83.60
80568;BME280;69922;45.656;25.586;2023-11-19T02:49:16;95262.11;;;0.50;83.79
80568;BME280;69922;45.656;25.586;2023-11-19T02:50:23;95262.96;;;0.50;83.71
80568;BME280;69922;45.656;25.586;2023-11-19T02:51:32;95268.50;;;0.50;83.66
80568;BME280;69922;45.656;25.586;2023-11-19T02:52:39;95270.27;;;0.48;83.83
80568;BME280;69922;45.656;25.586;2023-11-19T02:53:45;95268.16;;;0.49;83.60
80568;BME280;69922;45.656;25.586;2023-11-19T02:54:54;95270.50;;;0.51;83.48
80568;BME280;69922;45.656;25.586;2023-11-19T02:56:03;95276.41;;;0.51;83.41
80568;BME280;69922;45.656;25.586;2023-11-19T02:57:21;95276.64;;;0.52;83.39
80568;BME280;69922;45.656;25.586;2023-11-19T02:58:29;95275.99;;;0.53;83.29
80568;BME280;69922;45.656;25.586;2023-11-19T02:59:35;95277.77;;;0.53;83.03
80568;BME280;69922;45.656;25.586;2023-11-19T03:00:45;95280.30;;;0.54;83.11
80568;BME280;69922;45.656;25.586;2023-11-19T03:02:03;95281.10;;;0.53;82.87
80568;BME280;69922;45.656;25.586;2023-11-19T03:03:09;95278.09;;;0.53;82.72
80568;BME280;69922;45.656;25.586;2023-11-19T03:04:25;95278.25;;;0.52;82.98
80568;BME280;69922;45.656;25.586;2023-11-19T03:05:31;95277.11;;;0.52;82.99
80568;BME280;69922;45.656;25.586;2023-11-19T03:06:38;95278.34;;;0.51;83.09
80568;BME280;69922;45.656;25.586;2023-11-19T03:07:45;95281.52;;;0.51;83.10
80568;BME280;69922;45.656;25.586;2023-11-19T03:08:51;95281.19;;;0.51;83.05
80568;BME280;69922;45.656;25.586;2023-11-19T03:09:58;95283.06;;;0.50;83.02
80568;BME280;69922;45.656;25.586;2023-11-19T03:11:06;95285.55;;;0.50;82.74
80568;BME280;69922;45.656;25.586;2023-11-19T03:12:12;95283.44;;;0.50;82.59
80568;BME280;69922;45.656;25.586;2023-11-19T03:13:18;95285.20;;;0.49;82.33
80568;BME280;69922;45.656;25.586;2023-11-19T03:14:25;95287.19;;;0.48;82.51
80568;BME280;69922;45.656;25.586;2023-11-19T03:15:31;95289.05;;;0.46;82.85
80568;BME280;69922;45.656;25.586;2023-11-19T03:16:37;95287.64;;;0.45;82.67
80568;BME280;69922;45.656;25.586;2023-11-19T03:17:44;95289.84;;;0.43;82.82
80568;BME280;69922;45.656;25.586;2023-11-19T03:18:50;95287.40;;;0.41;82.81
80568;BME280;69922;45.656;25.586;2023-11-19T03:19:57;95282.65;;;0.38;82.75
80568;BME280;69922;45.656;25.586;2023-11-19T03:21:03;95286.39;;;0.35;82.96
80568;BME280;69922;45.656;25.586;2023-11-19T03:22:09;95285.79;;;0.32;82.83
80568;BME280;69922;45.656;25.586;2023-11-19T03:23:17;95289.79;;;0.30;82.89
80568;BME280;69922;45.656;25.586;2023-11-19T03:24:23;95292.14;;;0.28;82.88
80568;BME280;69922;45.656;25.586;2023-11-19T03:25:30;95294.80;;;0.26;82.48
80568;BME280;69922;45.656;25.586;2023-11-19T03:26:39;95289.79;;;0.23;82.36
80568;BME280;69922;45.656;25.586;2023-11-19T03:27:45;95286.92;;;0.22;82.24
80568;BME280;69922;45.656;25.586;2023-11-19T03:28:51;95287.89;;;0.21;82.46
80568;BME280;69922;45.656;25.586;2023-11-19T03:29:58;95289.91;;;0.20;82.93
80568;BME280;69922;45.656;25.586;2023-11-19T03:31:06;95292.90;;;0.17;82.71
80568;BME280;69922;45.656;25.586;2023-11-19T03:32:15;95294.65;;;0.14;82.45
80568;BME280;69922;45.656;25.586;2023-11-19T03:33:21;95295.49;;;0.12;82.51
80568;BME280;69922;45.656;25.586;2023-11-19T03:34:27;95301.16;;;0.10;82.62
80568;BME280;69922;45.656;25.586;2023-11-19T03:35:34;95299.65;;;0.07;82.73
80568;BME280;69922;45.656;25.586;2023-11-19T03:36:40;95300.70;;;0.06;82.58
80568;BME280;69922;45.656;25.586;2023-11-19T03:37:47;95298.85;;;0.03;82.83
80568;BME280;69922;45.656;25.586;2023-11-19T03:38:53;95296.58;;;0.00;82.99
80568;BME280;69922;45.656;25.586;2023-11-19T03:40:00;95293.00;;;-0.03;83.05
80568;BME280;69922;45.656;25.586;2023-11-19T03:41:13;95298.88;;;-0.06;83.14
80568;BME280;69922;45.656;25.586;2023-11-19T03:42:20;95294.51;;;-0.09;83.12
80568;BME280;69922;45.656;25.586;2023-11-19T03:43:26;95293.34;;;-0.12;83.37
80568;BME280;69922;45.656;25.586;2023-11-19T03:44:33;95297.80;;;-0.12;83.63
80568;BME280;69922;45.656;25.586;2023-11-19T03:45:40;95297.35;;;-0.15;83.57
80568;BME280;69922;45.656;25.586;2023-11-19T03:46:48;95300.75;;;-0.17;83.69
80568;BME280;69922;45.656;25.586;2023-11-19T03:47:55;95299.94;;;-0.19;83.54
80568;BME280;69922;45.656;25.586;2023-11-19T03:49:01;95299.40;;;-0.19;83.40
80568;BME280;69922;45.656;25.586;2023-11-19T03:50:10;95299.40;;;-0.19;83.36
80568;BME280;69922;45.656;25.586;2023-11-19T03:51:17;95298.11;;;-0.19;83.25
80568;BME280;69922;45.656;25.586;2023-11-19T03:52:23;95297.30;;;-0.19;83.34
80568;BME280;69922;45.656;25.586;2023-11-19T03:53:30;95294.19;;;-0.20;83.46
80568;BME280;69922;45.656;25.586;2023-11-19T03:54:37;95291.64;;;-0.21;83.54
80568;BME280;69922;45.656;25.586;2023-11-19T03:55:43;95288.52;;;-0.22;83.53
80568;BME280;69922;45.656;25.586;2023-11-19T03:56:49;95288.81;;;-0.25;83.68
80568;BME280;69922;45.656;25.586;2023-11-19T03:57:55;95284.66;;;-0.27;83.56
80568;BME280;69922;45.656;25.586;2023-11-19T03:59:01;95285.14;;;-0.29;83.36
80568;BME280;69922;45.656;25.586;2023-11-19T04:00:09;95286.58;;;-0.29;83.43
80568;BME280;69922;45.656;25.586;2023-11-19T04:01:19;95289.22;;;-0.29;83.71
80568;BME280;69922;45.656;25.586;2023-11-19T04:02:25;95286.00;;;-0.29;83.82
80568;BME280;69922;45.656;25.586;2023-11-19T04:03:35;95284.69;;;-0.29;83.75
80568;BME280;69922;45.656;25.586;2023-11-19T04:04:42;95281.96;;;-0.29;83.93
80568;BME280;69922;45.656;25.586;2023-11-19T04:05:48;95283.84;;;-0.29;83.82
80568;BME280;69922;45.656;25.586;2023-11-19T04:06:55;95283.90;;;-0.30;83.81
80568;BME280;69922;45.656;25.586;2023-11-19T04:08:01;95284.73;;;-0.31;84.00
80568;BME280;69922;45.656;25.586;2023-11-19T04:09:07;95281.04;;;-0.30;83.88
80568;BME280;69922;45.656;25.586;2023-11-19T04:10:14;95280.02;;;-0.30;83.96
80568;BME280;69922;45.656;25.586;2023-11-19T04:11:22;95278.15;;;-0.30;83.88
80568;BME280;69922;45.656;25.586;2023-11-19T04:12:28;95275.19;;;-0.30;83.82
80568;BME280;69922;45.656;25.586;2023-11-19T04:13:35;95275.39;;;-0.30;83.82
80568;BME280;69922;45.656;25.586;2023-11-19T04:14:41;95279.38;;;-0.31;83.74
80568;BME280;69922;45.656;25.586;2023-11-19T04:15:48;95279.67;;;-0.31;83.85
80568;BME280;69922;45.656;25.586;2023-11-19T04:16:55;95279.09;;;-0.32;83.94
80568;BME280;69922;45.656;25.586;2023-11-19T04:18:01;95276.45;;;-0.32;83.79
80568;BME280;69922;45.656;25.586;2023-11-19T04:19:08;95274.94;;;-0.33;83.77
80568;BME280;69922;45.656;25.586;2023-11-19T04:20:14;95275.48;;;-0.33;83.75
80568;BME280;69922;45.656;25.586;2023-11-19T04:21:22;95271.77;;;-0.33;83.73
80568;BME280;69922;45.656;25.586;2023-11-19T04:22:29;95270.92;;;-0.34;83.73
80568;BME280;69922;45.656;25.586;2023-11-19T04:23:36;95269.73;;;-0.34;83.64
80568;BME280;69922;45.656;25.586;2023-11-19T04:24:42;95268.59;;;-0.33;83.59
80568;BME280;69922;45.656;25.586;2023-11-19T04:25:51;95268.88;;;-0.33;83.57
80568;BME280;69922;45.656;25.586;2023-11-19T04:26:58;95264.48;;;-0.32;83.36
80568;BME280;69922;45.656;25.586;2023-11-19T04:28:04;95264.33;;;-0.31;83.67
80568;BME280;69922;45.656;25.586;2023-11-19T04:29:13;95260.10;;;-0.31;83.33
80568;BME280;69922;45.656;25.586;2023-11-19T04:30:18;95259.35;;;-0.31;83.43
80568;BME280;69922;45.656;25.586;2023-11-19T04:31:25;95262.03;;;-0.31;83.21
80568;BME280;69922;45.656;25.586;2023-11-19T04:32:34;95267.86;;;-0.31;83.24
80568;BME280;69922;45.656;25.586;2023-11-19T04:33:41;95267.17;;;-0.32;83.33
80568;BME280;69922;45.656;25.586;2023-11-19T04:34:48;95266.90;;;-0.32;83.28
80568;BME280;69922;45.656;25.586;2023-11-19T04:35:54;95271.19;;;-0.32;83.01
80568;BME280;69922;45.656;25.586;2023-11-19T04:37:00;95267.77;;;-0.32;82.80
80568;BME280;69922;45.656;25.586;2023-11-19T04:38:13;95265.20;;;-0.30;82.67
80568;BME280;69922;45.656;25.586;2023-11-19T04:39:20;95269.58;;;-0.29;82.55
80568;BME280;69922;45.656;25.586;2023-11-19T04:40:27;95274.41;;;-0.28;82.66
80568;BME280;69922;45.656;25.586;2023-11-19T04:41:34;95272.91;;;-0.27;82.77
80568;BME280;69922;45.656;25.586;2023-11-19T04:42:40;95271.20;;;-0.27;82.65
80568;BME280;69922;45.656;25.586;2023-11-19T04:43:46;95265.19;;;-0.27;82.66
80568;BME280;69922;45.656;25.586;2023-11-19T04:44:53;95264.60;;;-0.26;82.67
80568;BME280;69922;45.656;25.586;2023-11-19T04:46:00;95261.34;;;-0.26;82.54
80568;BME280;69922;45.656;25.586;2023-11-19T04:47:09;95260.85;;;-0.26;82.63
80568;BME280;69922;45.656;25.586;2023-11-19T04:48:17;95259.94;;;-0.26;82.51
80568;BME280;69922;45.656;25.586;2023-11-19T04:49:24;95259.90;;;-0.24;82.76
80568;BME280;69922;45.656;25.586;2023-11-19T04:50:31;95259.52;;;-0.23;82.56
80568;BME280;69922;45.656;25.586;2023-11-19T04:51:41;95266.19;;;-0.23;82.30
80568;BME280;69922;45.656;25.586;2023-11-19T04:52:48;95267.86;;;-0.22;82.42
80568;BME280;69922;45.656;25.586;2023-11-19T04:53:54;95270.72;;;-0.21;82.20
80568;BME280;69922;45.656;25.586;2023-11-19T04:55:00;95272.73;;;-0.18;82.27
80568;BME280;69922;45.656;25.586;2023-11-19T04:56:11;95275.86;;;-0.16;82.25
80568;BME280;69922;45.656;25.586;2023-11-19T04:57:18;95278.25;;;-0.13;82.15
80568;BME280;69922;45.656;25.586;2023-11-19T04:58:24;95277.56;;;-0.11;82.21
80568;BME280;69922;45.656;25.586;2023-11-19T04:59:31;95279.10;;;-0.10;82.31
80568;BME280;69922;45.656;25.586;2023-11-19T05:00:37;95281.10;;;-0.08;82.17
80568;BME280;69922;45.656;25.586;2023-11-19T05:01:47;95284.16;;;-0.06;82.32
80568;BME280;69922;45.656;25.586;2023-11-19T05:02:54;95281.67;;;-0.04;81.77
80568;BME280;69922;45.656;25.586;2023-11-19T05:04:01;95278.54;;;-0.00;81.99
80568;BME280;69922;45.656;25.586;2023-11-19T05:05:08;95283.70;;;0.02;81.91
80568;BME280;69922;45.656;25.586;2023-11-19T05:06:16;95279.69;;;0.03;82.09
80568;BME280;69922;45.656;25.586;2023-11-19T05:07:22;95278.14;;;0.05;82.17
80568;BME280;69922;45.656;25.586;2023-11-19T05:08:28;95280.29;;;0.06;81.89
80568;BME280;69922;45.656;25.586;2023-11-19T05:09:34;95278.73;;;0.06;82.03
80568;BME280;69922;45.656;25.586;2023-11-19T05:10:41;95274.71;;;0.07;82.21
80568;BME280;69922;45.656;25.586;2023-11-19T05:11:47;95275.48;;;0.07;82.07
80568;BME280;69922;45.656;25.586;2023-11-19T05:12:58;95276.21;;;0.06;82.10
80568;BME280;69922;45.656;25.586;2023-11-19T05:14:05;95274.81;;;0.05;82.15
80568;BME280;69922;45.656;25.586;2023-11-19T05:15:13;95270.84;;;0.06;81.99
80568;BME280;69922;45.656;25.586;2023-11-19T05:16:20;95270.63;;;0.06;82.04
80568;BME280;69922;45.656;25.586;2023-11-19T05:17:27;95268.52;;;0.05;82.14
80568;BME280;69922;45.656;25.586;2023-11-19T05:18:34;95270.03;;;0.05;82.20
80568;BME280;69922;45.656;25.586;2023-11-19T05:19:40;95265.58;;;0.03;82.18
80568;BME280;69922;45.656;25.586;2023-11-19T05:20:47;95270.45;;;0.03;82.17
80568;BME280;69922;45.656;25.586;2023-11-19T05:21:53;95266.16;;;0.03;82.22
80568;BME280;69922;45.656;25.586;2023-11-19T05:23:00;95268.52;;;0.02;82.25
80568;BME280;69922;45.656;25.586;2023-11-19T05:24:07;95273.83;;;0.02;82.28
80568;BME280;69922;45.656;25.586;2023-11-19T05:25:13;95269.89;;;0.00;82.34
80568;BME280;69922;45.656;25.586;2023-11-19T05:26:21;95270.28;;;0.01;82.36
80568;BME280;69922;45.656;25.586;2023-11-19T05:27:28;95273.00;;;0.01;82.24
80568;BME280;69922;45.656;25.586;2023-11-19T05:28:34;95272.60;;;0.02;82.37
80568;BME280;69922;45.656;25.586;2023-11-19T05:29:41;95270.88;;;0.02;82.48
80568;BME280;69922;45.656;25.586;2023-11-19T05:30:48;95272.27;;;0.02;82.41
80568;BME280;69922;45.656;25.586;2023-11-19T05:31:55;95270.17;;;0.03;83.56
80568;BME280;69922;45.656;25.586;2023-11-19T05:33:01;95268.21;;;0.06;83.49
80568;BME280;69922;45.656;25.586;2023-11-19T05:34:08;95267.15;;;0.07;82.82
80568;BME280;69922;45.656;25.586;2023-11-19T05:35:15;95266.62;;;0.07;82.68
80568;BME280;69922;45.656;25.586;2023-11-19T05:36:21;95267.85;;;0.07;82.52
80568;BME280;69922;45.656;25.586;2023-11-19T05:37:27;95270.33;;;0.08;82.52
80568;BME280;69922;45.656;25.586;2023-11-19T05:38:33;95268.92;;;0.08;82.22
80568;BME280;69922;45.656;25.586;2023-11-19T05:39:39;95269.86;;;0.09;82.08
80568;BME280;69922;45.656;25.586;2023-11-19T05:40:46;95265.84;;;0.11;82.45
80568;BME280;69922;45.656;25.586;2023-11-19T05:41:54;95263.98;;;0.14;83.94
80568;BME280;69922;45.656;25.586;2023-11-19T05:43:00;95261.27;;;0.22;85.65
80568;BME280;69922;45.656;25.586;2023-11-19T05:44:06;95262.61;;;0.30;86.07
80568;BME280;69922;45.656;25.586;2023-11-19T05:45:13;95261.36;;;0.35;84.55
80568;BME280;69922;45.656;25.586;2023-11-19T05:46:19;95264.27;;;0.35;83.31
80568;BME280;69922;45.656;25.586;2023-11-19T05:47:27;95259.90;;;0.36;82.88
80568;BME280;69922;45.656;25.586;2023-11-19T05:48:34;95261.20;;;0.35;82.80
80568;BME280;69922;45.656;25.586;2023-11-19T05:49:40;95253.45;;;0.34;82.51
80568;BME280;69922;45.656;25.586;2023-11-19T05:50:46;95250.93;;;0.33;82.64
80568;BME280;69922;45.656;25.586;2023-11-19T05:51:55;95249.25;;;0.31;82.49
80568;BME280;69922;45.656;25.586;2023-11-19T05:53:02;95247.52;;;0.31;82.54
80568;BME280;69922;45.656;25.586;2023-11-19T05:54:11;95245.95;;;0.29;82.48
80568;BME280;69922;45.656;25.586;2023-11-19T05:55:19;95245.29;;;0.27;82.45